AFL769 UUEE-UWGG
Flight info
| Callsign | AFL769 |
|---|---|
| Flight time | 0h 40m |
| Altitude | 29000 |
| Route | KOGOM3E KOGOM L94 USTOK USTOK2P |
| Aircraft | A320/M-SDE3FGHIRWY/LB1 |
Departure
| Time | 2026-05-07 02:12 |
|---|---|
| Airport | Sheremetyevo International Airport (UUEE) |
Arrival
| Time | 2026-05-07 02:53 |
|---|---|
| Airport | Nizhny Novgorod / Strigino International Airport (UWGG) |
| Time | Latitude | Longitude | Altitude | Speed | Heading |
|---|---|---|---|---|---|
| 2026-05-07 01:34 | 55.97839 | 37.41632 | 640 ft | 0 kts | 75° |
| 2026-05-07 02:03 | 55.97839 | 37.41629 | 639 ft | 2 kts | 75° |
| 2026-05-07 02:03 | 55.97832 | 37.41584 | 646 ft | 4 kts | 80° |
| 2026-05-07 02:03 | 55.97832 | 37.41545 | 642 ft | 4 kts | 141° |
| 2026-05-07 02:04 | 55.97836 | 37.41539 | 648 ft | 0 kts | 165° |
| 2026-05-07 02:07 | 55.97829 | 37.41543 | 641 ft | 6 kts | 166° |
| 2026-05-07 02:08 | 55.97745 | 37.41579 | 641 ft | 15 kts | 175° |
| 2026-05-07 02:08 | 55.97638 | 37.41600 | 640 ft | 16 kts | 169° |
| 2026-05-07 02:08 | 55.97577 | 37.41465 | 641 ft | 15 kts | 254° |
| 2026-05-07 02:08 | 55.97552 | 37.41297 | 641 ft | 13 kts | 255° |
| 2026-05-07 02:09 | 55.97530 | 37.41151 | 644 ft | 11 kts | 255° |
| 2026-05-07 02:09 | 55.97510 | 37.41007 | 642 ft | 14 kts | 259° |
| 2026-05-07 02:09 | 55.97481 | 37.40821 | 641 ft | 18 kts | 255° |
| 2026-05-07 02:09 | 55.97445 | 37.40583 | 644 ft | 22 kts | 255° |
| 2026-05-07 02:10 | 55.97404 | 37.40300 | 639 ft | 25 kts | 255° |
| 2026-05-07 02:10 | 55.97364 | 37.40045 | 641 ft | 16 kts | 255° |
| 2026-05-07 02:10 | 55.97329 | 37.39902 | 638 ft | 10 kts | 219° |
| 2026-05-07 02:10 | 55.97271 | 37.39908 | 646 ft | 8 kts | 163° |
| 2026-05-07 02:11 | 55.97210 | 37.39937 | 638 ft | 10 kts | 165° |
| 2026-05-07 02:11 | 55.97182 | 37.40008 | 639 ft | 8 kts | 78° |
| 2026-05-07 02:11 | 55.97185 | 37.40031 | 642 ft | 0 kts | 74° |
| 2026-05-07 02:12 | 55.97218 | 37.40248 | 640 ft | 53 kts | 75° |
| 2026-05-07 02:12 | 55.97369 | 37.41261 | 640 ft | 113 kts | 75° |
| 2026-05-07 02:12 | 55.97612 | 37.42928 | 641 ft | 162 kts | 73° |
| 2026-05-07 02:12 | 55.97916 | 37.44885 | 1223 ft | 159 kts | 75° |
| 2026-05-07 02:13 | 55.98169 | 37.46818 | 1862 ft | 161 kts | 83° |
| 2026-05-07 02:13 | 55.98429 | 37.48878 | 2238 ft | 180 kts | 81° |
| 2026-05-07 02:13 | 55.98728 | 37.51116 | 2600 ft | 198 kts | 85° |
| 2026-05-07 02:13 | 55.99066 | 37.53649 | 2920 ft | 222 kts | 84° |
| 2026-05-07 02:14 | 55.99453 | 37.56478 | 3272 ft | 247 kts | 82° |
| 2026-05-07 02:14 | 55.99882 | 37.59528 | 3893 ft | 258 kts | 81° |
| 2026-05-07 02:14 | 56.00291 | 37.62678 | 4637 ft | 263 kts | 89° |
| 2026-05-07 02:14 | 56.00101 | 37.65877 | 5343 ft | 259 kts | 116° |
| 2026-05-07 02:15 | 55.99159 | 37.68584 | 5914 ft | 263 kts | 142° |
| 2026-05-07 02:15 | 55.97599 | 37.70287 | 6470 ft | 266 kts | 165° |
| 2026-05-07 02:15 | 55.95834 | 37.71402 | 7201 ft | 272 kts | 165° |
| 2026-05-07 02:15 | 55.94041 | 37.72559 | 7980 ft | 276 kts | 165° |
| 2026-05-07 02:16 | 55.92270 | 37.73999 | 8728 ft | 287 kts | 152° |
| 2026-05-07 02:16 | 55.90729 | 37.76340 | 9186 ft | 297 kts | 133° |
| 2026-05-07 02:16 | 55.89488 | 37.79320 | 10035 ft | 301 kts | 130° |
| 2026-05-07 02:16 | 55.88234 | 37.82330 | 10771 ft | 304 kts | 131° |
| 2026-05-07 02:17 | 55.86972 | 37.85328 | 11476 ft | 309 kts | 129° |
| 2026-05-07 02:17 | 55.85873 | 37.88730 | 12188 ft | 318 kts | 118° |
| 2026-05-07 02:17 | 55.84944 | 37.92272 | 12887 ft | 322 kts | 118° |
| 2026-05-07 02:17 | 55.83994 | 37.95912 | 13580 ft | 327 kts | 118° |
| 2026-05-07 02:18 | 55.83029 | 37.99601 | 14218 ft | 331 kts | 118° |
| 2026-05-07 02:18 | 55.82054 | 38.03324 | 14752 ft | 335 kts | 118° |
| 2026-05-07 02:18 | 55.81054 | 38.07136 | 14910 ft | 335 kts | 118° |
| 2026-05-07 02:18 | 55.80150 | 38.10961 | 14938 ft | 337 kts | 109° |
| 2026-05-07 02:19 | 55.79700 | 38.15001 | 14942 ft | 345 kts | 96° |
| 2026-05-07 02:19 | 55.79727 | 38.19383 | 15213 ft | 361 kts | 88° |
| 2026-05-07 02:19 | 55.79841 | 38.23879 | 15738 ft | 367 kts | 88° |
| 2026-05-07 02:19 | 55.79944 | 38.28418 | 15907 ft | 368 kts | 88° |
| 2026-05-07 02:20 | 55.80038 | 38.32962 | 15943 ft | 368 kts | 88° |
| 2026-05-07 02:20 | 55.80130 | 38.37508 | 15943 ft | 368 kts | 88° |
| 2026-05-07 02:20 | 55.80450 | 38.42016 | 15950 ft | 368 kts | 76° |
| 2026-05-07 02:20 | 55.81198 | 38.46393 | 16478 ft | 371 kts | 71° |
| 2026-05-07 02:21 | 55.82000 | 38.50770 | 17169 ft | 373 kts | 71° |
| 2026-05-07 02:21 | 55.82793 | 38.55186 | 17813 ft | 376 kts | 72° |
| 2026-05-07 02:21 | 55.83584 | 38.59637 | 18430 ft | 379 kts | 72° |
| 2026-05-07 02:21 | 55.84380 | 38.64130 | 18833 ft | 382 kts | 72° |
| 2026-05-07 02:22 | 55.85176 | 38.68633 | 18929 ft | 382 kts | 72° |
| 2026-05-07 02:22 | 55.86099 | 38.73067 | 18949 ft | 384 kts | 64° |
| 2026-05-07 02:22 | 55.87269 | 38.77442 | 19156 ft | 397 kts | 63° |
| 2026-05-07 02:22 | 55.88466 | 38.81909 | 19614 ft | 402 kts | 63° |
| 2026-05-07 02:23 | 55.89673 | 38.86426 | 20124 ft | 406 kts | 64° |
| 2026-05-07 02:23 | 55.90887 | 38.90984 | 20659 ft | 409 kts | 64° |
| 2026-05-07 02:23 | 55.92108 | 38.95583 | 21158 ft | 413 kts | 64° |
| 2026-05-07 02:23 | 55.93319 | 39.00179 | 21680 ft | 416 kts | 64° |
| 2026-05-07 02:24 | 55.94553 | 39.04879 | 22193 ft | 420 kts | 64° |
| 2026-05-07 02:24 | 55.95717 | 39.09673 | 22704 ft | 424 kts | 70° |
| 2026-05-07 02:24 | 55.96476 | 39.14773 | 23206 ft | 427 kts | 80° |
| 2026-05-07 02:24 | 55.96818 | 39.20050 | 23652 ft | 430 kts | 85° |
| 2026-05-07 02:25 | 55.97096 | 39.25368 | 24126 ft | 431 kts | 85° |
| 2026-05-07 02:25 | 55.97379 | 39.30706 | 24564 ft | 433 kts | 85° |
| 2026-05-07 02:25 | 55.97664 | 39.36063 | 24977 ft | 435 kts | 85° |
| 2026-05-07 02:25 | 55.97949 | 39.41451 | 25378 ft | 437 kts | 85° |
| 2026-05-07 02:26 | 55.98234 | 39.46864 | 25771 ft | 439 kts | 85° |
| 2026-05-07 02:26 | 55.98519 | 39.52298 | 26162 ft | 441 kts | 85° |
| 2026-05-07 02:26 | 55.98802 | 39.57762 | 26537 ft | 443 kts | 85° |
| 2026-05-07 02:26 | 55.99182 | 39.63240 | 26892 ft | 446 kts | 79° |
| 2026-05-07 02:27 | 56.00007 | 39.68598 | 27227 ft | 450 kts | 70° |
| 2026-05-07 02:27 | 56.01300 | 39.73698 | 27568 ft | 452 kts | 62° |
| 2026-05-07 02:27 | 56.02780 | 39.78659 | 27921 ft | 454 kts | 62° |
| 2026-05-07 02:27 | 56.04262 | 39.83657 | 28272 ft | 456 kts | 62° |
| 2026-05-07 02:28 | 56.05745 | 39.88695 | 28608 ft | 458 kts | 62° |
| 2026-05-07 02:28 | 56.07231 | 39.93760 | 28829 ft | 463 kts | 62° |
| 2026-05-07 02:28 | 56.08734 | 39.98904 | 28961 ft | 469 kts | 62° |
| 2026-05-07 02:28 | 56.10238 | 40.04056 | 28980 ft | 477 kts | 62° |
| 2026-05-07 02:29 | 56.13362 | 40.14751 | 28981 ft | 491 kts | 62° |
| 2026-05-07 02:29 | 56.16546 | 40.25724 | 28981 ft | 498 kts | 62° |
| 2026-05-07 02:30 | 56.19732 | 40.36756 | 28983 ft | 496 kts | 62° |
| 2026-05-07 02:30 | 56.22891 | 40.47773 | 28986 ft | 495 kts | 63° |
| 2026-05-07 02:31 | 56.25555 | 40.59142 | 28987 ft | 494 kts | 77° |
| 2026-05-07 02:31 | 56.26049 | 40.65241 | 28648 ft | 490 kts | 89° |
| 2026-05-07 02:31 | 56.25932 | 40.71320 | 28387 ft | 484 kts | 95° |
| 2026-05-07 02:32 | 56.25710 | 40.77353 | 27922 ft | 481 kts | 95° |
| 2026-05-07 02:32 | 56.25466 | 40.83338 | 27444 ft | 478 kts | 96° |
| 2026-05-07 02:32 | 56.25211 | 40.89276 | 26974 ft | 475 kts | 96° |
| 2026-05-07 02:32 | 56.24952 | 40.95188 | 26511 ft | 473 kts | 96° |
| 2026-05-07 02:33 | 56.24695 | 41.01061 | 26052 ft | 470 kts | 96° |
| 2026-05-07 02:33 | 56.24445 | 41.06822 | 25617 ft | 467 kts | 95° |
| 2026-05-07 02:33 | 56.24194 | 41.12627 | 25181 ft | 465 kts | 95° |
| 2026-05-07 02:33 | 56.23943 | 41.18409 | 24747 ft | 462 kts | 95° |
| 2026-05-07 02:34 | 56.23690 | 41.24196 | 24347 ft | 471 kts | 95° |
| 2026-05-07 02:34 | 56.23424 | 41.30157 | 23950 ft | 483 kts | 95° |
| 2026-05-07 02:34 | 56.23151 | 41.36188 | 23551 ft | 484 kts | 95° |
| 2026-05-07 02:34 | 56.22875 | 41.42211 | 23086 ft | 483 kts | 95° |
| 2026-05-07 02:35 | 56.22597 | 41.48208 | 22631 ft | 480 kts | 95° |
| 2026-05-07 02:35 | 56.22320 | 41.54167 | 22175 ft | 477 kts | 95° |
| 2026-05-07 02:35 | 56.22043 | 41.60084 | 21729 ft | 474 kts | 95° |
| 2026-05-07 02:35 | 56.21762 | 41.65970 | 21299 ft | 472 kts | 95° |
| 2026-05-07 02:36 | 56.21478 | 41.71832 | 20856 ft | 470 kts | 95° |
| 2026-05-07 02:36 | 56.21195 | 41.77665 | 20433 ft | 467 kts | 95° |
| 2026-05-07 02:36 | 56.20913 | 41.83462 | 20014 ft | 465 kts | 95° |
| 2026-05-07 02:36 | 56.20628 | 41.89234 | 19589 ft | 462 kts | 95° |
| 2026-05-07 02:37 | 56.20346 | 41.94883 | 19187 ft | 460 kts | 95° |
| 2026-05-07 02:37 | 56.20057 | 42.00577 | 18781 ft | 454 kts | 96° |
| 2026-05-07 02:37 | 56.19770 | 42.06155 | 18380 ft | 444 kts | 96° |
| 2026-05-07 02:37 | 56.19487 | 42.11625 | 17949 ft | 436 kts | 96° |
| 2026-05-07 02:38 | 56.19207 | 42.16990 | 17522 ft | 428 kts | 96° |
| 2026-05-07 02:38 | 56.18927 | 42.22266 | 17101 ft | 421 kts | 96° |
| 2026-05-07 02:38 | 56.18648 | 42.27462 | 16684 ft | 415 kts | 96° |
| 2026-05-07 02:38 | 56.18373 | 42.32568 | 16273 ft | 409 kts | 96° |
| 2026-05-07 02:39 | 56.18099 | 42.37612 | 15887 ft | 402 kts | 96° |
| 2026-05-07 02:39 | 56.17829 | 42.42559 | 15512 ft | 396 kts | 96° |
| 2026-05-07 02:39 | 56.17556 | 42.47445 | 15141 ft | 390 kts | 96° |
| 2026-05-07 02:39 | 56.17282 | 42.52258 | 14776 ft | 385 kts | 96° |
| 2026-05-07 02:40 | 56.17012 | 42.57004 | 14404 ft | 380 kts | 96° |
| 2026-05-07 02:40 | 56.16746 | 42.61690 | 14055 ft | 375 kts | 96° |
| 2026-05-07 02:40 | 56.16481 | 42.66318 | 13690 ft | 371 kts | 96° |
| 2026-05-07 02:40 | 56.16217 | 42.70891 | 13295 ft | 367 kts | 96° |
| 2026-05-07 02:41 | 56.15957 | 42.75353 | 12901 ft | 362 kts | 96° |
| 2026-05-07 02:41 | 56.15696 | 42.79821 | 12511 ft | 358 kts | 96° |
| 2026-05-07 02:41 | 56.15435 | 42.84245 | 12127 ft | 354 kts | 96° |
| 2026-05-07 02:41 | 56.15174 | 42.88621 | 11743 ft | 351 kts | 96° |
| 2026-05-07 02:42 | 56.14915 | 42.92944 | 11368 ft | 347 kts | 96° |
| 2026-05-07 02:42 | 56.14619 | 42.97222 | 10994 ft | 344 kts | 102° |
| 2026-05-07 02:42 | 56.13808 | 43.01212 | 10635 ft | 340 kts | 117° |
| 2026-05-07 02:42 | 56.12791 | 43.05013 | 10273 ft | 337 kts | 116° |
| 2026-05-07 02:43 | 56.11781 | 43.08782 | 9907 ft | 334 kts | 116° |
| 2026-05-07 02:43 | 56.10774 | 43.12520 | 9517 ft | 332 kts | 116° |
| 2026-05-07 02:43 | 56.09774 | 43.16222 | 9118 ft | 329 kts | 116° |
| 2026-05-07 02:43 | 56.08779 | 43.19891 | 8736 ft | 326 kts | 116° |
| 2026-05-07 02:44 | 56.07791 | 43.23525 | 8357 ft | 323 kts | 116° |
| 2026-05-07 02:44 | 56.06814 | 43.27116 | 7982 ft | 320 kts | 116° |
| 2026-05-07 02:44 | 56.05847 | 43.30669 | 7604 ft | 316 kts | 116° |
| 2026-05-07 02:44 | 56.04900 | 43.34143 | 7240 ft | 313 kts | 116° |
| 2026-05-07 02:45 | 56.03951 | 43.37626 | 6876 ft | 310 kts | 116° |
| 2026-05-07 02:45 | 56.03010 | 43.41071 | 6499 ft | 307 kts | 116° |
| 2026-05-07 02:45 | 56.02074 | 43.44474 | 6126 ft | 303 kts | 116° |
| 2026-05-07 02:45 | 56.01147 | 43.47836 | 5752 ft | 300 kts | 116° |
| 2026-05-07 02:46 | 56.00230 | 43.51166 | 5361 ft | 297 kts | 116° |
| 2026-05-07 02:46 | 55.99390 | 43.54535 | 4842 ft | 296 kts | 106° |
| 2026-05-07 02:46 | 55.99065 | 43.57989 | 4770 ft | 269 kts | 91° |
| 2026-05-07 02:46 | 55.99204 | 43.61190 | 4710 ft | 251 kts | 77° |
| 2026-05-07 02:47 | 55.99709 | 43.64086 | 4597 ft | 239 kts | 64° |
| 2026-05-07 02:47 | 56.00510 | 43.66616 | 4431 ft | 230 kts | 52° |
| 2026-05-07 02:47 | 56.01547 | 43.68727 | 4223 ft | 223 kts | 40° |
| 2026-05-07 02:47 | 56.02767 | 43.70383 | 3986 ft | 219 kts | 29° |
| 2026-05-07 02:48 | 56.04123 | 43.71560 | 3727 ft | 216 kts | 18° |
| 2026-05-07 02:48 | 56.05558 | 43.72238 | 3447 ft | 211 kts | 10° |
| 2026-05-07 02:48 | 56.06975 | 43.72752 | 3178 ft | 206 kts | 10° |
| 2026-05-07 02:48 | 56.08355 | 43.73253 | 2932 ft | 198 kts | 11° |
| 2026-05-07 02:49 | 56.09683 | 43.73735 | 2642 ft | 190 kts | 12° |
| 2026-05-07 02:49 | 56.10932 | 43.74188 | 2392 ft | 176 kts | 13° |
| 2026-05-07 02:49 | 56.12090 | 43.74608 | 2179 ft | 161 kts | 13° |
| 2026-05-07 02:49 | 56.13144 | 43.74991 | 1971 ft | 149 kts | 14° |
| 2026-05-07 02:50 | 56.14140 | 43.75353 | 1763 ft | 143 kts | 14° |
| 2026-05-07 02:50 | 56.15094 | 43.75701 | 1577 ft | 141 kts | 15° |
| 2026-05-07 02:50 | 56.16050 | 43.76050 | 1380 ft | 139 kts | 14° |
| 2026-05-07 02:50 | 56.17002 | 43.76408 | 1190 ft | 140 kts | 13° |
| 2026-05-07 02:51 | 56.17957 | 43.76732 | 998 ft | 140 kts | 12° |
| 2026-05-07 02:51 | 56.18912 | 43.77069 | 786 ft | 140 kts | 12° |
| 2026-05-07 02:51 | 56.19864 | 43.77429 | 641 ft | 140 kts | 12° |
| 2026-05-07 02:51 | 56.20822 | 43.77784 | 421 ft | 140 kts | 11° |
| 2026-05-07 02:52 | 56.21774 | 43.78131 | 273 ft | 138 kts | 11° |
| 2026-05-07 02:52 | 56.22568 | 43.78426 | 265 ft | 91 kts | 11° |
| 2026-05-07 02:52 | 56.23063 | 43.78607 | 269 ft | 62 kts | 11° |
| 2026-05-07 02:52 | 56.23456 | 43.78749 | 265 ft | 54 kts | 11° |
| 2026-05-07 02:53 | 56.23804 | 43.78875 | 266 ft | 47 kts | 11° |
| 2026-05-07 02:53 | 56.24060 | 43.78968 | 268 ft | 20 kts | 12° |
| 2026-05-07 02:53 | 56.24104 | 43.79127 | 266 ft | 18 kts | 118° |
| 2026-05-07 02:53 | 56.24008 | 43.79269 | 266 ft | 19 kts | 175° |
| 2026-05-07 02:54 | 56.23870 | 43.79261 | 266 ft | 21 kts | 182° |
| 2026-05-07 02:54 | 56.23720 | 43.79250 | 266 ft | 22 kts | 182° |
| 2026-05-07 02:54 | 56.23558 | 43.79236 | 266 ft | 24 kts | 182° |
| 2026-05-07 02:54 | 56.23388 | 43.79193 | 266 ft | 25 kts | 191° |
| 2026-05-07 02:55 | 56.23212 | 43.79127 | 266 ft | 27 kts | 192° |
| 2026-05-07 02:55 | 56.23026 | 43.79052 | 266 ft | 28 kts | 193° |
| 2026-05-07 02:55 | 56.22830 | 43.78981 | 266 ft | 29 kts | 191° |
| 2026-05-07 02:55 | 56.22628 | 43.78911 | 266 ft | 30 kts | 191° |
| 2026-05-07 02:56 | 56.22436 | 43.78827 | 266 ft | 23 kts | 205° |
| 2026-05-07 02:56 | 56.22289 | 43.78761 | 266 ft | 22 kts | 192° |
| 2026-05-07 02:56 | 56.22143 | 43.78707 | 266 ft | 21 kts | 193° |
| 2026-05-07 02:56 | 56.22057 | 43.78682 | 266 ft | 8 kts | 167° |
| 2026-05-07 02:57 | 56.22033 | 43.78757 | 266 ft | 7 kts | 103° |
| 2026-05-07 02:57 | 56.22025 | 43.78836 | 266 ft | 6 kts | 101° |
| 2026-05-07 02:57 | 56.22024 | 43.78847 | 266 ft | 0 kts | 101° |